sensor_id;sensor_type;location;lat;lon;timestamp;temperature;humidity
47757;SHT35;22147;52.388;13.390;2022-12-13T00:02:00;-1.18;79.96
47757;SHT35;22147;52.388;13.390;2022-12-13T00:04:30;-1.12;79.46
47757;SHT35;22147;52.388;13.390;2022-12-13T00:07:00;-1.17;78.69
47757;SHT35;22147;52.388;13.390;2022-12-13T00:09:30;-1.24;79.43
47757;SHT35;22147;52.388;13.390;2022-12-13T00:12:00;-1.24;79.98
47757;SHT35;22147;52.388;13.390;2022-12-13T00:14:29;-1.27;80.19
47757;SHT35;22147;52.388;13.390;2022-12-13T00:17:00;-1.28;80.55
47757;SHT35;22147;52.388;13.390;2022-12-13T00:19:30;-1.18;79.85
47757;SHT35;22147;52.388;13.390;2022-12-13T00:22:00;-1.21;79.44
47757;SHT35;22147;52.388;13.390;2022-12-13T00:24:29;-1.21;79.51
47757;SHT35;22147;52.388;13.390;2022-12-13T00:26:59;-1.30;80.08
47757;SHT35;22147;52.388;13.390;2022-12-13T00:29:28;-1.25;80.60
47757;SHT35;22147;52.388;13.390;2022-12-13T00:31:56;-1.27;80.06
47757;SHT35;22147;52.388;13.390;2022-12-13T00:34:28;-1.28;80.30
47757;SHT35;22147;52.388;13.390;2022-12-13T00:36:57;-1.27;81.16
47757;SHT35;22147;52.388;13.390;2022-12-13T00:39:28;-1.32;81.71
47757;SHT35;22147;52.388;13.390;2022-12-13T00:41:58;-1.28;81.66
47757;SHT35;22147;52.388;13.390;2022-12-13T00:44:28;-1.30;81.83
47757;SHT35;22147;52.388;13.390;2022-12-13T00:46:58;-1.34;82.11
47757;SHT35;22147;52.388;13.390;2022-12-13T00:49:27;-1.31;82.29
47757;SHT35;22147;52.388;13.390;2022-12-13T00:51:57;-1.30;82.18
47757;SHT35;22147;52.388;13.390;2022-12-13T00:54:28;-1.30;82.43
47757;SHT35;22147;52.388;13.390;2022-12-13T00:56:58;-1.17;82.01
47757;SHT35;22147;52.388;13.390;2022-12-13T00:59:28;-1.27;81.90
47757;SHT35;22147;52.388;13.390;2022-12-13T01:01:58;-1.25;82.25
47757;SHT35;22147;52.388;13.390;2022-12-13T01:04:27;-1.22;81.92
47757;SHT35;22147;52.388;13.390;2022-12-13T01:06:57;-1.25;81.75
47757;SHT35;22147;52.388;13.390;2022-12-13T01:09:27;-1.27;81.93
47757;SHT35;22147;52.388;13.390;2022-12-13T01:12:04;-1.27;81.95
47757;SHT35;22147;52.388;13.390;2022-12-13T01:14:38;-1.24;81.61
47757;SHT35;22147;52.388;13.390;2022-12-13T01:17:09;-1.18;81.79
47757;SHT35;22147;52.388;13.390;2022-12-13T01:19:36;-1.22;81.77
47757;SHT35;22147;52.388;13.390;2022-12-13T01:22:06;-1.27;81.88
47757;SHT35;22147;52.388;13.390;2022-12-13T01:24:37;-1.28;82.08
47757;SHT35;22147;52.388;13.390;2022-12-13T01:27:05;-1.32;82.34
47757;SHT35;22147;52.388;13.390;2022-12-13T01:29:33;-1.32;82.57
47757;SHT35;22147;52.388;13.390;2022-12-13T01:32:01;-1.32;82.69
47757;SHT35;22147;52.388;13.390;2022-12-13T01:34:29;-1.25;82.54
47757;SHT35;22147;52.388;13.390;2022-12-13T01:36:57;-1.25;82.67
47757;SHT35;22147;52.388;13.390;2022-12-13T01:39:27;-1.34;82.91
47757;SHT35;22147;52.388;13.390;2022-12-13T01:41:55;-1.32;83.35
47757;SHT35;22147;52.388;13.390;2022-12-13T01:45:00;-1.22;83.27
47757;SHT35;22147;52.388;13.390;2022-12-13T01:47:45;-1.30;83.40
47757;SHT35;22147;52.388;13.390;2022-12-13T01:50:28;-1.32;83.39
47757;SHT35;22147;52.388;13.390;2022-12-13T01:53:07;-1.35;83.12
47757;SHT35;22147;52.388;13.390;2022-12-13T01:55:44;-1.38;83.21
47757;SHT35;22147;52.388;13.390;2022-12-13T01:58:15;-1.41;83.35
47757;SHT35;22147;52.388;13.390;2022-12-13T02:00:45;-1.38;83.45
47757;SHT35;22147;52.388;13.390;2022-12-13T02:03:20;-1.45;83.63
47757;SHT35;22147;52.388;13.390;2022-12-13T02:08:24;-1.34;83.93
47757;SHT35;22147;52.388;13.390;2022-12-13T02:10:54;-1.41;84.14
47757;SHT35;22147;52.388;13.390;2022-12-13T02:13:21;-1.44;84.45
47757;SHT35;22147;52.388;13.390;2022-12-13T02:19:41;-1.49;84.73
47757;SHT35;22147;52.388;13.390;2022-12-13T02:25:50;-1.48;85.24
47757;SHT35;22147;52.388;13.390;2022-12-13T02:34:52;-1.49;85.15
47757;SHT35;22147;52.388;13.390;2022-12-13T02:37:51;-1.55;85.48
47757;SHT35;22147;52.388;13.390;2022-12-13T02:41:02;-1.48;85.57
47757;SHT35;22147;52.388;13.390;2022-12-13T02:46:25;-1.55;86.25
47757;SHT35;22147;52.388;13.390;2022-12-13T02:49:00;-1.58;86.56
47757;SHT35;22147;52.388;13.390;2022-12-13T02:51:32;-1.59;86.63
47757;SHT35;22147;52.388;13.390;2022-12-13T02:54:03;-1.58;86.75
47757;SHT35;22147;52.388;13.390;2022-12-13T02:56:33;-1.65;86.68
47757;SHT35;22147;52.388;13.390;2022-12-13T02:59:13;-1.60;86.90
47757;SHT35;22147;52.388;13.390;2022-12-13T03:02:46;-1.62;86.53
47757;SHT35;22147;52.388;13.390;2022-12-13T03:05:47;-1.62;86.73
47757;SHT35;22147;52.388;13.390;2022-12-13T03:09:42;-1.65;86.81
47757;SHT35;22147;52.388;13.390;2022-12-13T03:12:56;-1.65;86.79
47757;SHT35;22147;52.388;13.390;2022-12-13T03:16:15;-1.60;86.85
47757;SHT35;22147;52.388;13.390;2022-12-13T03:19:00;-1.60;86.82
47757;SHT35;22147;52.388;13.390;2022-12-13T03:21:48;-1.65;87.01
47757;SHT35;22147;52.388;13.390;2022-12-13T03:24:20;-1.55;86.55
47757;SHT35;22147;52.388;13.390;2022-12-13T03:26:51;-1.63;86.57
47757;SHT35;22147;52.388;13.390;2022-12-13T03:29:21;-1.59;86.59
47757;SHT35;22147;52.388;13.390;2022-12-13T03:31:53;-1.48;86.33
47757;SHT35;22147;52.388;13.390;2022-12-13T03:34:23;-1.58;86.00
47757;SHT35;22147;52.388;13.390;2022-12-13T03:36:53;-1.56;86.10
47757;SHT35;22147;52.388;13.390;2022-12-13T03:39:23;-1.59;86.17
47757;SHT35;22147;52.388;13.390;2022-12-13T03:41:53;-1.58;86.14
47757;SHT35;22147;52.388;13.390;2022-12-13T03:44:22;-1.59;86.14
47757;SHT35;22147;52.388;13.390;2022-12-13T03:47:00;-1.62;86.25
47757;SHT35;22147;52.388;13.390;2022-12-13T03:49:30;-1.65;86.43
47757;SHT35;22147;52.388;13.390;2022-12-13T03:52:04;-1.60;86.55
47757;SHT35;22147;52.388;13.390;2022-12-13T03:54:34;-1.63;86.29
47757;SHT35;22147;52.388;13.390;2022-12-13T03:57:04;-1.68;86.42
47757;SHT35;22147;52.388;13.390;2022-12-13T03:59:33;-1.68;86.51
47757;SHT35;22147;52.388;13.390;2022-12-13T04:02:03;-1.62;86.61
47757;SHT35;22147;52.388;13.390;2022-12-13T04:04:32;-1.55;86.27
47757;SHT35;22147;52.388;13.390;2022-12-13T04:07:00;-1.58;86.07
47757;SHT35;22147;52.388;13.390;2022-12-13T04:09:28;-1.65;86.31
47757;SHT35;22147;52.388;13.390;2022-12-13T04:11:57;-1.65;86.38
47757;SHT35;22147;52.388;13.390;2022-12-13T04:14:46;-1.62;86.45
47757;SHT35;22147;52.388;13.390;2022-12-13T04:17:16;-1.58;86.45
47757;SHT35;22147;52.388;13.390;2022-12-13T04:19:45;-1.62;86.10
47757;SHT35;22147;52.388;13.390;2022-12-13T04:22:15;-1.65;86.11
47757;SHT35;22147;52.388;13.390;2022-12-13T04:24:53;-1.63;86.38
47757;SHT35;22147;52.388;13.390;2022-12-13T04:27:23;-1.60;86.15
47757;SHT35;22147;52.388;13.390;2022-12-13T04:29:52;-1.56;86.18
47757;SHT35;22147;52.388;13.390;2022-12-13T04:32:22;-1.55;85.82
47757;SHT35;22147;52.388;13.390;2022-12-13T04:34:56;-1.65;85.73
47757;SHT35;22147;52.388;13.390;2022-12-13T04:37:30;-1.62;85.52
47757;SHT35;22147;52.388;13.390;2022-12-13T04:39:58;-1.66;85.38
47757;SHT35;22147;52.388;13.390;2022-12-13T04:42:27;-1.68;85.52
47757;SHT35;22147;52.388;13.390;2022-12-13T04:44:55;-1.66;85.53
47757;SHT35;22147;52.388;13.390;2022-12-13T04:47:24;-1.66;85.44
47757;SHT35;22147;52.388;13.390;2022-12-13T04:49:52;-1.59;85.58
47757;SHT35;22147;52.388;13.390;2022-12-13T04:52:20;-1.60;85.30
47757;SHT35;22147;52.388;13.390;2022-12-13T04:54:49;-1.60;85.12
47757;SHT35;22147;52.388;13.390;2022-12-13T04:57:25;-1.60;85.02
47757;SHT35;22147;52.388;13.390;2022-12-13T04:59:54;-1.59;84.48
47757;SHT35;22147;52.388;13.390;2022-12-13T05:02:24;-1.62;84.61
47757;SHT35;22147;52.388;13.390;2022-12-13T05:04:54;-1.58;84.31
47757;SHT35;22147;52.388;13.390;2022-12-13T05:07:26;-1.62;84.22
47757;SHT35;22147;52.388;13.390;2022-12-13T05:09:55;-1.59;84.12
47757;SHT35;22147;52.388;13.390;2022-12-13T05:12:25;-1.48;83.97
47757;SHT35;22147;52.388;13.390;2022-12-13T05:14:55;-1.51;83.47
47757;SHT35;22147;52.388;13.390;2022-12-13T05:17:25;-1.55;83.62
47757;SHT35;22147;52.388;13.390;2022-12-13T05:19:54;-1.54;83.65
47757;SHT35;22147;52.388;13.390;2022-12-13T05:22:25;-1.52;83.79
47757;SHT35;22147;52.388;13.390;2022-12-13T05:24:55;-1.56;83.94
47757;SHT35;22147;52.388;13.390;2022-12-13T05:27:25;-1.60;83.96
47757;SHT35;22147;52.388;13.390;2022-12-13T05:29:56;-1.65;84.06
47757;SHT35;22147;52.388;13.390;2022-12-13T05:32:40;-1.56;84.15
47757;SHT35;22147;52.388;13.390;2022-12-13T05:35:15;-1.59;83.67
47757;SHT35;22147;52.388;13.390;2022-12-13T05:37:53;-1.60;83.93
47757;SHT35;22147;52.388;13.390;2022-12-13T05:40:30;-1.55;83.57
47757;SHT35;22147;52.388;13.390;2022-12-13T05:42:59;-1.59;83.96
47757;SHT35;22147;52.388;13.390;2022-12-13T05:45:32;-1.69;84.18
47757;SHT35;22147;52.388;13.390;2022-12-13T05:48:02;-1.58;84.22
47757;SHT35;22147;52.388;13.390;2022-12-13T05:50:31;-1.55;83.70
47757;SHT35;22147;52.388;13.390;2022-12-13T05:53:04;-1.60;83.62
47757;SHT35;22147;52.388;13.390;2022-12-13T05:55:33;-1.63;83.75
47757;SHT35;22147;52.388;13.390;2022-12-13T05:58:04;-1.66;83.89
47757;SHT35;22147;52.388;13.390;2022-12-13T06:00:42;-1.72;83.86
47757;SHT35;22147;52.388;13.390;2022-12-13T06:03:12;-1.60;84.01
47757;SHT35;22147;52.388;13.390;2022-12-13T06:05:41;-1.63;83.87
47757;SHT35;22147;52.388;13.390;2022-12-13T06:08:10;-1.63;83.96
47757;SHT35;22147;52.388;13.390;2022-12-13T06:11:01;-1.62;83.76
47757;SHT35;22147;52.388;13.390;2022-12-13T06:13:42;-1.72;84.21
47757;SHT35;22147;52.388;13.390;2022-12-13T06:16:13;-1.72;84.37
47757;SHT35;22147;52.388;13.390;2022-12-13T06:18:55;-1.72;84.54
47757;SHT35;22147;52.388;13.390;2022-12-13T06:21:34;-1.75;84.48
47757;SHT35;22147;52.388;13.390;2022-12-13T06:24:17;-1.72;84.75
47757;SHT35;22147;52.388;13.390;2022-12-13T06:26:49;-1.69;84.53
47757;SHT35;22147;52.388;13.390;2022-12-13T06:29:22;-1.72;84.38
47757;SHT35;22147;52.388;13.390;2022-12-13T06:32:00;-1.68;84.57
47757;SHT35;22147;52.388;13.390;2022-12-13T06:34:34;-1.70;84.68
47757;SHT35;22147;52.388;13.390;2022-12-13T06:37:10;-1.79;84.61
47757;SHT35;22147;52.388;13.390;2022-12-13T06:39:39;-1.80;84.83
47757;SHT35;22147;52.388;13.390;2022-12-13T06:42:17;-1.65;84.65
47757;SHT35;22147;52.388;13.390;2022-12-13T06:44:51;-1.68;84.36
47757;SHT35;22147;52.388;13.390;2022-12-13T06:47:25;-1.78;84.62
47757;SHT35;22147;52.388;13.390;2022-12-13T06:50:01;-1.79;84.83
47757;SHT35;22147;52.388;13.390;2022-12-13T06:52:34;-1.78;84.78
47757;SHT35;22147;52.388;13.390;2022-12-13T06:55:04;-1.75;85.00
47757;SHT35;22147;52.388;13.390;2022-12-13T06:57:33;-1.73;84.81
47757;SHT35;22147;52.388;13.390;2022-12-13T07:00:04;-1.72;84.86
47757;SHT35;22147;52.388;13.390;2022-12-13T07:02:33;-1.73;84.81
47757;SHT35;22147;52.388;13.390;2022-12-13T07:05:01;-1.75;84.83
47757;SHT35;22147;52.388;13.390;2022-12-13T07:07:29;-1.73;84.79
47757;SHT35;22147;52.388;13.390;2022-12-13T07:09:58;-1.73;84.85
47757;SHT35;22147;52.388;13.390;2022-12-13T07:12:26;-1.70;84.33
47757;SHT35;22147;52.388;13.390;2022-12-13T07:14:55;-1.72;84.38
47757;SHT35;22147;52.388;13.390;2022-12-13T07:17:23;-1.75;84.28
47757;SHT35;22147;52.388;13.390;2022-12-13T07:20:07;-1.73;84.28
47757;SHT35;22147;52.388;13.390;2022-12-13T07:22:38;-1.82;84.58
47757;SHT35;22147;52.388;13.390;2022-12-13T07:25:16;-1.85;84.85
47757;SHT35;22147;52.388;13.390;2022-12-13T07:28:05;-1.85;85.07
47757;SHT35;22147;52.388;13.390;2022-12-13T07:30:38;-1.83;85.20
47757;SHT35;22147;52.388;13.390;2022-12-13T07:33:10;-1.78;85.21
47757;SHT35;22147;52.388;13.390;2022-12-13T07:35:40;-1.80;84.84
47757;SHT35;22147;52.388;13.390;2022-12-13T07:38:11;-1.76;84.67
47757;SHT35;22147;52.388;13.390;2022-12-13T07:40:41;-1.79;84.84
47757;SHT35;22147;52.388;13.390;2022-12-13T07:43:11;-1.83;84.78
47757;SHT35;22147;52.388;13.390;2022-12-13T07:45:40;-1.80;84.53
47757;SHT35;22147;52.388;13.390;2022-12-13T07:48:10;-1.78;84.58
47757;SHT35;22147;52.388;13.390;2022-12-13T07:50:40;-1.75;84.45
47757;SHT35;22147;52.388;13.390;2022-12-13T07:53:10;-1.70;84.04
47757;SHT35;22147;52.388;13.390;2022-12-13T07:55:40;-1.73;83.96
47757;SHT35;22147;52.388;13.390;2022-12-13T07:58:13;-1.68;84.21
47757;SHT35;22147;52.388;13.390;2022-12-13T08:00:45;-1.69;84.19
47757;SHT35;22147;52.388;13.390;2022-12-13T08:03:15;-1.63;84.10
47757;SHT35;22147;52.388;13.390;2022-12-13T08:06:09;-1.63;84.03
47757;SHT35;22147;52.388;13.390;2022-12-13T08:08:40;-1.68;83.77
47757;SHT35;22147;52.388;13.390;2022-12-13T08:11:13;-1.75;83.85
47757;SHT35;22147;52.388;13.390;2022-12-13T08:13:46;-1.68;84.10
47757;SHT35;22147;52.388;13.390;2022-12-13T08:16:15;-1.68;83.91
47757;SHT35;22147;52.388;13.390;2022-12-13T08:18:59;-1.59;83.85
47757;SHT35;22147;52.388;13.390;2022-12-13T08:21:40;-1.55;83.40
47757;SHT35;22147;52.388;13.390;2022-12-13T08:24:30;-1.62;83.45
47757;SHT35;22147;52.388;13.390;2022-12-13T08:27:01;-1.56;83.36
47757;SHT35;22147;52.388;13.390;2022-12-13T08:29:34;-1.55;83.13
47757;SHT35;22147;52.388;13.390;2022-12-13T08:32:11;-1.44;83.31
47757;SHT35;22147;52.388;13.390;2022-12-13T08:34:42;-1.48;82.79
47757;SHT35;22147;52.388;13.390;2022-12-13T08:37:12;-1.44;82.50
47757;SHT35;22147;52.388;13.390;2022-12-13T08:39:43;-1.47;82.86
47757;SHT35;22147;52.388;13.390;2022-12-13T08:42:17;-1.47;82.41
47757;SHT35;22147;52.388;13.390;2022-12-13T08:44:51;-1.45;82.47
47757;SHT35;22147;52.388;13.390;2022-12-13T08:47:25;-1.41;82.37
47757;SHT35;22147;52.388;13.390;2022-12-13T08:49:58;-1.44;82.43
47757;SHT35;22147;52.388;13.390;2022-12-13T08:52:34;-1.39;82.68
47757;SHT35;22147;52.388;13.390;2022-12-13T08:55:12;-1.31;82.77
47757;SHT35;22147;52.388;13.390;2022-12-13T08:57:44;-1.24;82.32
47757;SHT35;22147;52.388;13.390;2022-12-13T09:00:19;-1.38;81.37
47757;SHT35;22147;52.388;13.390;2022-12-13T09:02:49;-1.31;81.94
47757;SHT35;22147;52.388;13.390;2022-12-13T09:05:19;-1.21;82.13
47757;SHT35;22147;52.388;13.390;2022-12-13T09:08:03;-1.14;81.80
47757;SHT35;22147;52.388;13.390;2022-12-13T09:11:00;-1.07;80.82
47757;SHT35;22147;52.388;13.390;2022-12-13T09:13:49;-1.11;81.06
47757;SHT35;22147;52.388;13.390;2022-12-13T09:16:21;-1.17;81.26
47757;SHT35;22147;52.388;13.390;2022-12-13T09:18:53;-1.14;80.95
47757;SHT35;22147;52.388;13.390;2022-12-13T09:21:24;-1.10;80.81
47757;SHT35;22147;52.388;13.390;2022-12-13T09:24:00;-1.18;81.05
47757;SHT35;22147;52.388;13.390;2022-12-13T09:26:31;-1.14;81.41
47757;SHT35;22147;52.388;13.390;2022-12-13T09:29:07;-1.08;81.06
47757;SHT35;22147;52.388;13.390;2022-12-13T09:31:41;-0.99;80.43
47757;SHT35;22147;52.388;13.390;2022-12-13T09:34:11;-1.03;80.42
47757;SHT35;22147;52.388;13.390;2022-12-13T09:36:39;-1.03;80.80
47757;SHT35;22147;52.388;13.390;2022-12-13T09:39:08;-1.18;80.09
47757;SHT35;22147;52.388;13.390;2022-12-13T09:41:50;-1.05;80.81
47757;SHT35;22147;52.388;13.390;2022-12-13T09:44:38;-1.14;80.26
47757;SHT35;22147;52.388;13.390;2022-12-13T09:47:40;-1.07;80.88
47757;SHT35;22147;52.388;13.390;2022-12-13T09:50:31;-1.01;80.77
47757;SHT35;22147;52.388;13.390;2022-12-13T09:53:07;-0.94;79.84
47757;SHT35;22147;52.388;13.390;2022-12-13T09:55:51;-1.04;80.62
47757;SHT35;22147;52.388;13.390;2022-12-13T09:58:39;-0.91;80.66
47757;SHT35;22147;52.388;13.390;2022-12-13T10:01:11;-0.96;80.53
47757;SHT35;22147;52.388;13.390;2022-12-13T10:03:49;-0.89;80.63
47757;SHT35;22147;52.388;13.390;2022-12-13T10:06:23;-0.83;80.23
47757;SHT35;22147;52.388;13.390;2022-12-13T10:08:58;-0.99;80.41
47757;SHT35;22147;52.388;13.390;2022-12-13T10:11:29;-0.90;80.60
47757;SHT35;22147;52.388;13.390;2022-12-13T10:14:10;-0.84;80.10
47757;SHT35;22147;52.388;13.390;2022-12-13T10:16:52;-0.79;79.92
47757;SHT35;22147;52.388;13.390;2022-12-13T10:22:11;-0.68;80.12
47757;SHT35;22147;52.388;13.390;2022-12-13T10:24:57;-0.66;79.72
47757;SHT35;22147;52.388;13.390;2022-12-13T10:27:43;-0.76;79.67
47757;SHT35;22147;52.388;13.390;2022-12-13T10:30:21;-0.80;78.83
47757;SHT35;22147;52.388;13.390;2022-12-13T10:33:03;-0.73;79.42
47757;SHT35;22147;52.388;13.390;2022-12-13T10:35:40;-0.74;79.62
47757;SHT35;22147;52.388;13.390;2022-12-13T10:40:45;-0.73;78.89
47757;SHT35;22147;52.388;13.390;2022-12-13T10:43:26;-0.68;79.08
47757;SHT35;22147;52.388;13.390;2022-12-13T10:48:46;-0.52;79.01
47757;SHT35;22147;52.388;13.390;2022-12-13T10:51:21;-0.59;78.03
47757;SHT35;22147;52.388;13.390;2022-12-13T10:53:59;-0.53;78.22
47757;SHT35;22147;52.388;13.390;2022-12-13T10:56:47;-0.56;77.81
47757;SHT35;22147;52.388;13.390;2022-12-13T11:01:49;-0.52;78.07
47757;SHT35;22147;52.388;13.390;2022-12-13T11:04:34;-0.61;77.68
47757;SHT35;22147;52.388;13.390;2022-12-13T11:07:27;-0.46;78.04
47757;SHT35;22147;52.388;13.390;2022-12-13T11:10:35;-0.43;77.47
47757;SHT35;22147;52.388;13.390;2022-12-13T11:13:07;-0.45;77.28
47757;SHT35;22147;52.388;13.390;2022-12-13T11:15:38;-0.53;76.88
47757;SHT35;22147;52.388;13.390;2022-12-13T11:18:24;-0.49;76.92
47757;SHT35;22147;52.388;13.390;2022-12-13T11:21:03;-0.58;77.21
47757;SHT35;22147;52.388;13.390;2022-12-13T11:23:44;-0.74;77.80
47757;SHT35;22147;52.388;13.390;2022-12-13T11:26:21;-0.63;77.92
47757;SHT35;22147;52.388;13.390;2022-12-13T11:39:19;-0.39;76.91
47757;SHT35;22147;52.388;13.390;2022-12-13T11:45:11;-0.31;76.27
47757;SHT35;22147;52.388;13.390;2022-12-13T11:48:43;-0.24;75.93
47757;SHT35;22147;52.388;13.390;2022-12-13T11:51:29;-0.21;75.94
47757;SHT35;22147;52.388;13.390;2022-12-13T11:54:27;-0.24;75.90
47757;SHT35;22147;52.388;13.390;2022-12-13T11:57:13;-0.35;75.54
47757;SHT35;22147;52.388;13.390;2022-12-13T12:00:03;-0.28;76.37
47757;SHT35;22147;52.388;13.390;2022-12-13T12:02:53;-0.07;76.01
47757;SHT35;22147;52.388;13.390;2022-12-13T12:05:35;-0.21;75.92
47757;SHT35;22147;52.388;13.390;2022-12-13T12:08:23;-0.15;75.97
47757;SHT35;22147;52.388;13.390;2022-12-13T12:11:34;-0.31;76.17
47757;SHT35;22147;52.388;13.390;2022-12-13T12:14:42;-0.03;76.07
47757;SHT35;22147;52.388;13.390;2022-12-13T12:17:23;0.11;75.05
47757;SHT35;22147;52.388;13.390;2022-12-13T12:19:57;-0.05;75.31
47757;SHT35;22147;52.388;13.390;2022-12-13T12:25:53;-0.25;75.43
47757;SHT35;22147;52.388;13.390;2022-12-13T12:45:20;-0.36;76.03
47757;SHT35;22147;52.388;13.390;2022-12-13T12:55:08;-0.51;76.02
47757;SHT35;22147;52.388;13.390;2022-12-13T12:58:33;-0.62;76.86
47757;SHT35;22147;52.388;13.390;2022-12-13T13:04:14;-0.55;76.69
47757;SHT35;22147;52.388;13.390;2022-12-13T13:07:27;-0.52;76.56
47757;SHT35;22147;52.388;13.390;2022-12-13T13:10:10;-0.55;76.70
47757;SHT35;22147;52.388;13.390;2022-12-13T13:12:55;-0.58;76.87
47757;SHT35;22147;52.388;13.390;2022-12-13T13:15:42;-0.61;76.90
47757;SHT35;22147;52.388;13.390;2022-12-13T13:18:49;-0.56;76.98
47757;SHT35;22147;52.388;13.390;2022-12-13T13:24:28;-0.33;76.81
47757;SHT35;22147;52.388;13.390;2022-12-13T13:27:29;-0.49;76.56
47757;SHT35;22147;52.388;13.390;2022-12-13T13:30:23;-0.59;77.12
47757;SHT35;22147;52.388;13.390;2022-12-13T13:32:57;-0.56;76.82
47757;SHT35;22147;52.388;13.390;2022-12-13T13:38:48;-0.39;77.19
47757;SHT35;22147;52.388;13.390;2022-12-13T13:41:55;-0.33;76.77
47757;SHT35;22147;52.388;13.390;2022-12-13T13:53:43;-0.46;76.26
47757;SHT35;22147;52.388;13.390;2022-12-13T13:56:57;-0.49;76.40
47757;SHT35;22147;52.388;13.390;2022-12-13T14:06:52;-0.46;76.90
47757;SHT35;22147;52.388;13.390;2022-12-13T14:28:24;-0.58;76.64
47757;SHT35;22147;52.388;13.390;2022-12-13T14:30:58;-0.59;77.31
47757;SHT35;22147;52.388;13.390;2022-12-13T14:33:28;-0.70;77.74
47757;SHT35;22147;52.388;13.390;2022-12-13T14:36:00;-0.73;78.16
47757;SHT35;22147;52.388;13.390;2022-12-13T14:38:32;-0.72;78.27
47757;SHT35;22147;52.388;13.390;2022-12-13T14:41:02;-0.79;78.07
47757;SHT35;22147;52.388;13.390;2022-12-13T14:43:34;-0.74;78.38
47757;SHT35;22147;52.388;13.390;2022-12-13T14:46:07;-0.77;78.35
47757;SHT35;22147;52.388;13.390;2022-12-13T14:48:51;-0.72;78.38
47757;SHT35;22147;52.388;13.390;2022-12-13T14:51:36;-0.59;78.10
47757;SHT35;22147;52.388;13.390;2022-12-13T14:54:20;-0.63;77.83
47757;SHT35;22147;52.388;13.390;2022-12-13T14:57:02;-0.68;77.96
47757;SHT35;22147;52.388;13.390;2022-12-13T14:59:33;-0.74;78.03
47757;SHT35;22147;52.388;13.390;2022-12-13T15:02:04;-0.74;78.14
47757;SHT35;22147;52.388;13.390;2022-12-13T15:04:35;-0.76;78.30
47757;SHT35;22147;52.388;13.390;2022-12-13T15:07:39;-0.77;78.44
47757;SHT35;22147;52.388;13.390;2022-12-13T15:10:57;-0.82;78.28
47757;SHT35;22147;52.388;13.390;2022-12-13T15:13:34;-0.93;79.16
47757;SHT35;22147;52.388;13.390;2022-12-13T15:16:22;-0.96;79.41
47757;SHT35;22147;52.388;13.390;2022-12-13T15:19:16;-0.91;78.84
47757;SHT35;22147;52.388;13.390;2022-12-13T15:22:10;-0.93;78.68
47757;SHT35;22147;52.388;13.390;2022-12-13T15:24:44;-0.97;78.87
47757;SHT35;22147;52.388;13.390;2022-12-13T15:27:21;-1.04;79.12
47757;SHT35;22147;52.388;13.390;2022-12-13T15:29:54;-1.10;79.30
47757;SHT35;22147;52.388;13.390;2022-12-13T15:32:24;-1.18;79.64
47757;SHT35;22147;52.388;13.390;2022-12-13T15:34:52;-1.25;79.81
47757;SHT35;22147;52.388;13.390;2022-12-13T15:37:31;-1.34;80.20
47757;SHT35;22147;52.388;13.390;2022-12-13T15:40:13;-1.41;80.51
47757;SHT35;22147;52.388;13.390;2022-12-13T15:42:46;-1.48;80.72
47757;SHT35;22147;52.388;13.390;2022-12-13T15:45:25;-1.52;80.87
47757;SHT35;22147;52.388;13.390;2022-12-13T15:48:04;-1.60;81.27
47757;SHT35;22147;52.388;13.390;2022-12-13T15:50:39;-1.66;81.46
47757;SHT35;22147;52.388;13.390;2022-12-13T15:53:27;-1.70;81.58
47757;SHT35;22147;52.388;13.390;2022-12-13T15:55:57;-1.80;81.83
47757;SHT35;22147;52.388;13.390;2022-12-13T15:58:36;-1.86;82.12
47757;SHT35;22147;52.388;13.390;2022-12-13T16:01:05;-1.91;82.30
47757;SHT35;22147;52.388;13.390;2022-12-13T16:03:44;-2.00;82.58
47757;SHT35;22147;52.388;13.390;2022-12-13T16:06:22;-2.06;82.74
47757;SHT35;22147;52.388;13.390;2022-12-13T16:09:00;-2.13;83.03
47757;SHT35;22147;52.388;13.390;2022-12-13T16:11:46;-2.15;83.27
47757;SHT35;22147;52.388;13.390;2022-12-13T16:14:43;-2.18;83.46
47757;SHT35;22147;52.388;13.390;2022-12-13T16:17:26;-2.23;83.57
47757;SHT35;22147;52.388;13.390;2022-12-13T16:19:57;-2.26;83.62
47757;SHT35;22147;52.388;13.390;2022-12-13T16:22:34;-2.31;83.72
47757;SHT35;22147;52.388;13.390;2022-12-13T16:25:05;-2.34;83.80
47757;SHT35;22147;52.388;13.390;2022-12-13T16:27:34;-2.41;83.93
47757;SHT35;22147;52.388;13.390;2022-12-13T16:30:51;-2.45;84.08
47757;SHT35;22147;52.388;13.390;2022-12-13T16:33:19;-2.48;84.33
47757;SHT35;22147;52.388;13.390;2022-12-13T16:35:58;-2.54;84.35
47757;SHT35;22147;52.388;13.390;2022-12-13T16:38:28;-2.61;84.39
47757;SHT35;22147;52.388;13.390;2022-12-13T16:41:00;-2.58;84.43
47757;SHT35;22147;52.388;13.390;2022-12-13T16:43:54;-2.65;84.35
47757;SHT35;22147;52.388;13.390;2022-12-13T16:46:25;-2.66;84.42
47757;SHT35;22147;52.388;13.390;2022-12-13T16:49:26;-2.75;84.43
47757;SHT35;22147;52.388;13.390;2022-12-13T16:51:56;-2.79;84.69
47757;SHT35;22147;52.388;13.390;2022-12-13T16:54:26;-2.82;84.85
47757;SHT35;22147;52.388;13.390;2022-12-13T16:56:56;-2.85;84.98
47757;SHT35;22147;52.388;13.390;2022-12-13T16:59:27;-2.85;84.95
47757;SHT35;22147;52.388;13.390;2022-12-13T17:01:56;-2.86;84.91
47757;SHT35;22147;52.388;13.390;2022-12-13T17:04:26;-2.96;84.95
47757;SHT35;22147;52.388;13.390;2022-12-13T17:06:56;-2.99;85.05
47757;SHT35;22147;52.388;13.390;2022-12-13T17:09:26;-3.03;85.13
47757;SHT35;22147;52.388;13.390;2022-12-13T17:11:56;-3.04;85.21
47757;SHT35;22147;52.388;13.390;2022-12-13T17:14:25;-3.06;85.14
47757;SHT35;22147;52.388;13.390;2022-12-13T17:16:55;-3.04;85.15
47757;SHT35;22147;52.388;13.390;2022-12-13T17:19:25;-3.03;85.16
47757;SHT35;22147;52.388;13.390;2022-12-13T17:21:55;-2.93;84.80
47757;SHT35;22147;52.388;13.390;2022-12-13T17:24:29;-3.04;84.64
47757;SHT35;22147;52.388;13.390;2022-12-13T17:26:59;-3.07;84.75
47757;SHT35;22147;52.388;13.390;2022-12-13T17:29:29;-3.10;85.00
47757;SHT35;22147;52.388;13.390;2022-12-13T17:31:59;-3.17;85.05
47757;SHT35;22147;52.388;13.390;2022-12-13T17:34:29;-3.20;85.13
47757;SHT35;22147;52.388;13.390;2022-12-13T17:36:59;-3.13;85.43
47757;SHT35;22147;52.388;13.390;2022-12-13T17:39:35;-3.11;84.97
47757;SHT35;22147;52.388;13.390;2022-12-13T17:42:06;-3.11;84.91
47757;SHT35;22147;52.388;13.390;2022-12-13T17:44:37;-3.17;84.68
47757;SHT35;22147;52.388;13.390;2022-12-13T17:47:08;-3.24;84.73
47757;SHT35;22147;52.388;13.390;2022-12-13T17:49:38;-3.26;84.94
47757;SHT35;22147;52.388;13.390;2022-12-13T17:52:08;-3.28;85.03
47757;SHT35;22147;52.388;13.390;2022-12-13T17:54:38;-3.33;85.02
47757;SHT35;22147;52.388;13.390;2022-12-13T17:57:08;-3.40;85.01
47757;SHT35;22147;52.388;13.390;2022-12-13T17:59:39;-3.47;85.15
47757;SHT35;22147;52.388;13.390;2022-12-13T18:02:11;-3.45;85.36
47757;SHT35;22147;52.388;13.390;2022-12-13T18:04:43;-3.52;85.24
47757;SHT35;22147;52.388;13.390;2022-12-13T18:07:13;-3.47;85.44
47757;SHT35;22147;52.388;13.390;2022-12-13T18:09:44;-3.45;84.93